Time;durP1;ratioP1;P1;durP2;ratioP2;P2;SDS_P1;SDS_P2;PMS_P1;PMS_P2;Temp;Humidity;BMP_temperature;BMP_pressure;BME280_temperature;BME280_humidity;BME280_pressure;Samples;Min_cycle;Max_cycle;Signal;HPM_P1;HPM_P2
2023/06/28 00:00:06;;;;;;;5.90;2.33;;;18.90;98.20;;;;;;5151322;27;20210;-66
2023/06/28 00:02:35;;;;;;;2.30;2.10;;;18.80;98.40;;;;;;5151252;27;20268;-67
2023/06/28 00:05:03;;;;;;;6.67;2.40;;;18.90;98.00;;;;;;5132701;27;20448;-67
2023/06/28 00:07:29;;;;;;;3.80;2.10;;;18.90;98.30;;;;;;5151230;27;20444;-68
2023/06/28 00:09:55;;;;;;;5.40;2.03;;;18.80;98.40;;;;;;5151172;27;20440;-67
2023/06/28 00:12:21;;;;;;;2.70;1.97;;;18.90;98.20;;;;;;5151217;27;20906;-67
2023/06/28 00:14:47;;;;;;;7.63;2.70;;;18.80;98.20;;;;;;5151123;27;20188;-67
2023/06/28 00:17:13;;;;;;;9.30;2.77;;;18.80;98.10;;;;;;5151084;27;20980;-67
2023/06/28 00:19:47;;;;;;;5.40;2.00;;;18.90;98.80;;;;;;5150721;27;20216;-67
2023/06/28 00:22:14;;;;;;;4.97;2.20;;;18.80;98.50;;;;;;5150835;27;20798;-67
2023/06/28 00:24:40;;;;;;;2.73;1.63;;;18.90;98.10;;;;;;5150751;27;20424;-67
2023/06/28 00:27:06;;;;;;;6.73;2.63;;;18.90;98.20;;;;;;5150525;27;20536;-67
2023/06/28 00:29:31;;;;;;;3.57;1.83;;;18.90;98.10;;;;;;5150657;27;20528;-67
2023/06/28 00:31:57;;;;;;;3.67;1.93;;;18.90;98.00;;;;;;5150656;27;20185;-67
2023/06/28 00:34:23;;;;;;;6.97;2.20;;;18.90;98.00;;;;;;5151098;27;20232;-67
2023/06/28 00:36:48;;;;;;;3.13;2.10;;;18.80;98.60;;;;;;5150731;27;20275;-67
2023/06/28 00:39:14;;;;;;;2.97;2.00;;;18.90;97.80;;;;;;5131929;27;20293;-66
2023/06/28 00:41:39;;;;;;;6.37;2.40;;;18.90;98.40;;;;;;5150729;27;20187;-67
2023/06/28 00:44:06;;;;;;;4.40;2.27;;;18.90;98.20;;;;;;5152173;27;20185;-67
2023/06/28 00:46:32;;;;;;;7.77;2.13;;;18.90;98.30;;;;;;5136534;27;20278;-67
2023/06/28 00:48:58;;;;;;;6.50;2.60;;;18.90;98.10;;;;;;5154280;27;20409;-67
2023/06/28 00:51:24;;;;;;;5.13;2.40;;;18.90;98.40;;;;;;5154627;27;20496;-67
2023/06/28 00:53:49;;;;;;;5.63;1.90;;;18.90;98.50;;;;;;5154327;27;20453;-68
2023/06/28 00:56:15;;;;;;;3.63;2.30;;;18.90;98.50;;;;;;5153934;27;20417;-67
2023/06/28 00:58:41;;;;;;;3.23;2.20;;;18.80;98.30;;;;;;5153766;27;20252;-67
2023/06/28 01:01:06;;;;;;;5.27;2.37;;;18.80;98.00;;;;;;5153652;27;20205;-67
2023/06/28 01:03:32;;;;;;;8.63;2.83;;;18.80;98.20;;;;;;5135022;27;20837;-67
2023/06/28 01:05:58;;;;;;;2.60;1.90;;;18.80;97.90;;;;;;5135261;27;20192;-67
2023/06/28 01:08:26;;;;;;;2.50;1.80;;;18.80;97.70;;;;;;5153745;27;20191;-67
2023/06/28 01:10:52;;;;;;;2.63;1.80;;;18.80;98.20;;;;;;5153669;27;20849;-67
2023/06/28 01:13:19;;;;;;;2.07;1.80;;;18.80;97.90;;;;;;5153458;27;20410;-67
2023/06/28 01:15:45;;;;;;;6.30;2.00;;;18.80;97.90;;;;;;5134843;27;20823;-67
2023/06/28 01:18:11;;;;;;;4.70;2.27;;;18.70;97.80;;;;;;5153379;27;20460;-67
2023/06/28 01:20:37;;;;;;;5.87;1.97;;;18.70;97.80;;;;;;5134662;27;20200;-67
2023/06/28 01:23:03;;;;;;;4.07;2.50;;;18.70;98.10;;;;;;5153272;27;20429;-67
2023/06/28 01:25:29;;;;;;;5.90;2.13;;;18.70;97.50;;;;;;5153229;27;20516;-67
2023/06/28 01:27:55;;;;;;;5.37;1.80;;;18.70;97.10;;;;;;5153266;27;20211;-68
2023/06/28 01:30:23;;;;;;;7.30;2.60;;;18.70;96.50;;;;;;5134711;27;20224;-67
2023/06/28 01:32:49;;;;;;;5.27;1.90;;;18.70;96.40;;;;;;5153122;27;20446;-67
2023/06/28 01:35:15;;;;;;;1.90;1.80;;;18.60;96.80;;;;;;5153627;27;20410;-68
2023/06/28 01:37:42;;;;;;;9.13;2.70;;;18.60;96.60;;;;;;5134823;27;20453;-68
2023/06/28 01:40:10;;;;;;;6.67;2.47;;;18.60;97.30;;;;;;5153380;27;20236;-67
2023/06/28 01:42:36;;;;;;;5.17;2.03;;;18.60;96.70;;;;;;5153179;27;20429;-67
2023/06/28 01:45:03;;;;;;;3.83;1.90;;;18.50;96.90;;;;;;5153000;27;20470;-67
2023/06/28 01:47:28;;;;;;;3.83;2.40;;;18.50;97.60;;;;;;5152943;27;20414;-67
2023/06/28 01:49:55;;;;;;;4.00;1.97;;;18.40;98.10;;;;;;5134056;27;20815;-67
2023/06/28 01:52:20;;;;;;;2.53;1.90;;;18.40;98.20;;;;;;5152726;27;20180;-68
2023/06/28 01:54:46;;;;;;;2.93;2.60;;;18.40;99.90;;;;;;5133275;27;20417;-67
2023/06/28 01:57:12;;;;;;;11.53;2.67;;;18.20;99.90;;;;;;5133945;27;20188;-68
2023/06/28 01:59:37;;;;;;;4.13;3.00;;;18.10;99.90;;;;;;5152289;27;20216;-67
2023/06/28 02:02:03;;;;;;;2.93;1.87;;;18.10;99.90;;;;;;5152456;27;20422;-67
2023/06/28 02:04:29;;;;;;;7.93;2.73;;;18.00;99.90;;;;;;5152344;27;20180;-67
2023/06/28 02:06:56;;;;;;;5.70;2.50;;;18.00;99.90;;;;;;5152253;27;20437;-67
2023/06/28 02:09:22;;;;;;;4.53;2.30;;;18.00;99.90;;;;;;5151957;27;20207;-68
2023/06/28 02:11:48;;;;;;;4.47;2.43;;;18.00;99.90;;;;;;5152089;27;20418;-68
2023/06/28 02:14:14;;;;;;;4.87;2.73;;;17.80;99.90;;;;;;5152056;27;20424;-67
2023/06/28 02:16:41;;;;;;;6.80;2.93;;;17.90;99.90;;;;;;5152058;27;20677;-67
2023/06/28 02:19:12;;;;;;;15.63;2.73;;;17.80;99.90;;;;;;5151724;27;20347;-68
2023/06/28 02:21:40;;;;;;;5.03;2.83;;;17.70;99.90;;;;;;5152003;27;20450;-68
2023/06/28 02:24:09;;;;;;;6.80;2.90;;;17.60;99.90;;;;;;5151875;27;20556;-67
2023/06/28 02:26:35;;;;;;;9.93;2.83;;;17.50;99.90;;;;;;5132956;27;20455;-67
2023/06/28 02:29:01;;;;;;;10.90;2.77;;;17.40;99.90;;;;;;5151747;27;20807;-67
2023/06/28 02:31:26;;;;;;;4.30;2.50;;;17.30;99.90;;;;;;5132946;27;20234;-67
2023/06/28 02:33:52;;;;;;;7.67;2.73;;;17.30;99.90;;;;;;5151705;27;20188;-67
2023/06/28 02:36:17;;;;;;;9.17;2.93;;;17.20;99.90;;;;;;5132820;27;20179;-67
2023/06/28 02:38:43;;;;;;;4.43;2.40;;;17.10;99.90;;;;;;5133027;27;20232;-67
2023/06/28 02:41:10;;;;;;;5.60;3.33;;;17.10;99.90;;;;;;5151556;27;20206;-68
2023/06/28 02:43:35;;;;;;;6.27;3.00;;;17.00;99.90;;;;;;5132652;27;20191;-68
2023/06/28 02:46:01;;;;;;;7.53;3.10;;;16.70;99.90;;;;;;5151557;27;20421;-67
2023/06/28 02:48:27;;;;;;;8.67;3.43;;;16.50;99.90;;;;;;5151387;27;20198;-67
2023/06/28 02:50:52;;;;;;;11.30;3.40;;;16.40;99.90;;;;;;5151246;27;20626;-67
2023/06/28 02:53:18;;;;;;;6.07;3.20;;;16.10;99.90;;;;;;5151331;27;20199;-68
2023/06/28 02:55:43;;;;;;;11.53;4.63;;;15.90;99.90;;;;;;5151457;27;20195;-68
2023/06/28 02:58:09;;;;;;;5.20;2.80;;;15.90;99.90;;;;;;5151086;27;20207;-68
2023/06/28 03:00:37;;;;;;;10.83;3.50;;;15.80;99.90;;;;;;5151231;27;20207;-68
2023/06/28 03:03:03;;;;;;;7.70;3.27;;;15.90;99.90;;;;;;5151198;27;20271;-68
2023/06/28 03:05:29;;;;;;;10.27;3.23;;;16.00;99.90;;;;;;5132534;27;20425;-67
2023/06/28 03:07:54;;;;;;;8.93;3.00;;;16.00;99.90;;;;;;5131588;27;20984;-67
2023/06/28 03:10:20;;;;;;;6.93;2.97;;;16.00;99.90;;;;;;5151172;27;20205;-67
2023/06/28 03:12:46;;;;;;;4.10;2.60;;;16.10;99.90;;;;;;5150904;27;20652;-67
2023/06/28 03:15:12;;;;;;;6.00;3.40;;;16.00;99.90;;;;;;5132244;27;20190;-68
2023/06/28 03:17:37;;;;;;;9.90;3.43;;;15.90;99.90;;;;;;5151001;27;20202;-68
2023/06/28 03:20:04;;;;;;;8.17;3.37;;;16.00;99.90;;;;;;5131870;27;20554;-68
2023/06/28 03:22:29;;;;;;;5.80;2.73;;;16.00;99.90;;;;;;5131862;27;20567;-68
2023/06/28 03:24:55;;;;;;;6.97;3.00;;;16.00;99.90;;;;;;5150730;27;20505;-67
2023/06/28 03:27:20;;;;;;;9.17;3.17;;;15.90;99.90;;;;;;5131799;27;20200;-68
2023/06/28 03:29:46;;;;;;;3.80;2.70;;;15.90;99.90;;;;;;5132119;27;20214;-67
2023/06/28 03:32:11;;;;;;;8.60;3.20;;;15.90;99.90;;;;;;5150606;27;20284;-68
2023/06/28 03:34:37;;;;;;;11.17;3.13;;;15.90;99.90;;;;;;5150523;27;20233;-67
2023/06/28 03:37:03;;;;;;;11.37;3.30;;;16.00;99.90;;;;;;5150403;27;20189;-67
2023/06/28 03:39:28;;;;;;;5.40;2.80;;;16.00;99.90;;;;;;5150247;27;20629;-68
2023/06/28 03:41:54;;;;;;;6.83;2.80;;;16.10;99.90;;;;;;5150432;27;20645;-68
2023/06/28 03:44:19;;;;;;;6.87;2.80;;;16.20;99.90;;;;;;5150605;27;20204;-68
2023/06/28 03:46:45;;;;;;;6.50;3.07;;;16.30;99.90;;;;;;5150444;27;20191;-68
2023/06/28 03:49:11;;;;;;;5.93;3.20;;;16.40;99.90;;;;;;5150296;27;20551;-68
2023/06/28 03:51:37;;;;;;;4.87;3.10;;;16.40;99.90;;;;;;5150484;27;20199;-67
2023/06/28 03:54:03;;;;;;;6.67;2.77;;;16.30;99.90;;;;;;5131770;27;20746;-68
2023/06/28 03:56:28;;;;;;;8.10;2.80;;;16.20;99.90;;;;;;5131468;27;20972;-67
2023/06/28 03:58:54;;;;;;;7.67;2.70;;;16.20;99.90;;;;;;5131581;27;20460;-66
2023/06/28 04:01:20;;;;;;;7.60;3.30;;;16.30;99.90;;;;;;5150272;27;20551;-67
2023/06/28 04:03:45;;;;;;;4.57;2.90;;;16.30;99.90;;;;;;5150176;27;20666;-67
2023/06/28 04:06:11;;;;;;;6.43;2.87;;;16.30;99.90;;;;;;5150140;27;20183;-68
2023/06/28 04:08:36;;;;;;;6.73;2.73;;;16.40;99.90;;;;;;5150001;27;20678;-68
2023/06/28 04:11:02;;;;;;;5.57;3.10;;;16.40;99.90;;;;;;5131225;27;20965;-69
2023/06/28 04:13:28;;;;;;;7.07;3.07;;;16.40;99.90;;;;;;5131413;27;20188;-68
2023/06/28 04:15:54;;;;;;;13.57;3.00;;;16.40;99.90;;;;;;5150164;27;20190;-68
2023/06/28 04:18:20;;;;;;;6.97;3.00;;;16.30;99.90;;;;;;5130563;27;21067;-67
2023/06/28 04:20:45;;;;;;;5.73;3.13;;;16.30;99.90;;;;;;5131086;27;20233;-68
2023/06/28 04:23:11;;;;;;;5.90;2.87;;;16.20;99.90;;;;;;5149617;27;20417;-67
2023/06/28 04:25:37;;;;;;;10.40;3.10;;;16.20;99.90;;;;;;5149616;27;20657;-69
2023/06/28 04:28:03;;;;;;;5.60;2.60;;;16.20;99.90;;;;;;5149464;27;20251;-68
2023/06/28 04:30:31;;;;;;;4.00;2.50;;;16.20;99.90;;;;;;5149356;27;20492;-68
2023/06/28 04:32:57;;;;;;;6.70;3.53;;;16.20;99.90;;;;;;5149627;27;20499;-68
2023/06/28 04:35:22;;;;;;;8.73;2.80;;;16.20;99.90;;;;;;5113731;27;20902;-68
2023/06/28 04:37:50;;;;;;;7.33;2.80;;;16.20;99.90;;;;;;5149316;27;20175;-67
2023/06/28 04:40:16;;;;;;;4.63;2.70;;;16.20;99.90;;;;;;5149305;27;20674;-68
2023/06/28 04:42:41;;;;;;;7.10;3.10;;;16.20;99.90;;;;;;5131238;27;20455;-68
2023/06/28 04:45:09;;;;;;;6.50;3.03;;;16.20;99.90;;;;;;5149738;27;20420;-68
2023/06/28 04:47:35;;;;;;;5.73;2.80;;;16.20;99.90;;;;;;5149745;27;20184;-69
2023/06/28 04:50:03;;;;;;;7.47;2.87;;;16.30;99.90;;;;;;5131447;27;20491;-68
2023/06/28 04:52:28;;;;;;;7.67;2.57;;;16.30;99.90;;;;;;5149860;27;20907;-68
2023/06/28 04:54:54;;;;;;;3.90;2.53;;;16.30;99.90;;;;;;5150305;27;20436;-68
2023/06/28 04:57:22;;;;;;;3.20;2.90;;;16.30;99.90;;;;;;5150195;27;20343;-69
2023/06/28 04:59:48;;;;;;;5.57;2.70;;;16.30;99.90;;;;;;5131617;27;20656;-66
2023/06/28 05:02:14;;;;;;;7.53;2.40;;;16.40;99.90;;;;;;5150033;27;20420;-69
2023/06/28 05:04:41;;;;;;;6.03;2.90;;;16.40;99.90;;;;;;5149758;27;20535;-68
2023/06/28 05:07:09;;;;;;;7.03;2.60;;;16.40;99.90;;;;;;5149882;27;20409;-68
2023/06/28 05:09:36;;;;;;;8.57;3.37;;;16.40;99.90;;;;;;5149570;27;20471;-68
2023/06/28 05:12:02;;;;;;;9.03;2.80;;;16.50;99.90;;;;;;5149751;27;20923;-68
2023/06/28 05:14:29;;;;;;;4.37;2.47;;;16.50;99.90;;;;;;5149303;27;20412;-67
2023/06/28 05:16:55;;;;;;;9.93;2.93;;;16.70;99.90;;;;;;5130337;27;20795;-66
2023/06/28 05:19:22;;;;;;;8.00;3.60;;;16.80;99.90;;;;;;5148632;27;20473;-67
2023/06/28 05:21:47;;;;;;;6.90;3.03;;;16.90;99.90;;;;;;5148769;27;20176;-67
2023/06/28 05:24:15;;;;;;;8.07;3.00;;;17.00;99.90;;;;;;5148811;27;20797;-67
2023/06/28 05:26:41;;;;;;;11.53;3.10;;;17.00;99.90;;;;;;5148591;27;20204;-67
2023/06/28 05:29:06;;;;;;;3.03;2.47;;;16.80;99.90;;;;;;5148799;27;20424;-67
2023/06/28 05:31:32;;;;;;;9.83;2.23;;;17.00;99.90;;;;;;5133709;27;20184;-68
2023/06/28 05:33:58;;;;;;;4.80;2.50;;;17.20;99.90;;;;;;5152657;27;20193;-69
2023/06/28 05:36:23;;;;;;;8.37;2.50;;;17.10;99.90;;;;;;5116843;27;20179;-69
2023/06/28 05:38:49;;;;;;;8.93;2.87;;;17.30;99.90;;;;;;5133823;27;20596;-67
2023/06/28 05:41:18;;;;;;;4.90;2.90;;;17.40;99.90;;;;;;5152488;27;20388;-68
2023/06/28 05:43:45;;;;;;;5.47;2.10;;;17.50;99.90;;;;;;5133859;27;20434;-67
2023/06/28 05:46:11;;;;;;;5.70;3.37;;;17.50;99.90;;;;;;5152476;27;20422;-67
2023/06/28 05:48:37;;;;;;;4.60;2.33;;;17.50;99.90;;;;;;5133439;27;20443;-68
2023/06/28 05:51:03;;;;;;;4.90;2.43;;;17.50;99.90;;;;;;5152113;27;20877;-69
2023/06/28 05:53:29;;;;;;;3.90;2.50;;;17.50;99.90;;;;;;5152296;27;20275;-68
2023/06/28 05:55:55;;;;;;;3.33;2.77;;;17.50;99.90;;;;;;5152201;27;20208;-68
2023/06/28 05:58:21;;;;;;;4.80;2.43;;;17.70;99.90;;;;;;5151967;27;20464;-69
2023/06/28 06:00:47;;;;;;;5.10;2.50;;;17.70;99.90;;;;;;5151666;27;21056;-68
2023/06/28 06:03:13;;;;;;;6.10;2.90;;;17.80;99.90;;;;;;5133197;27;20196;-67
2023/06/28 06:05:38;;;;;;;7.27;3.13;;;17.80;99.90;;;;;;5133291;27;20190;-65
2023/06/28 06:08:05;;;;;;;4.60;2.60;;;17.90;99.90;;;;;;5151711;27;20184;-67
2023/06/28 06:10:31;;;;;;;4.73;2.60;;;18.00;99.90;;;;;;5151515;27;20202;-67
2023/06/28 06:12:57;;;;;;;7.37;2.70;;;18.00;99.90;;;;;;5151332;27;20518;-67
2023/06/28 06:15:23;;;;;;;9.60;2.50;;;18.00;99.90;;;;;;5152007;27;21191;-67
2023/06/28 06:17:50;;;;;;;4.73;2.03;;;17.90;99.90;;;;;;5132481;27;20187;-67
2023/06/28 06:20:15;;;;;;;21.50;2.80;;;18.00;99.90;;;;;;5151340;27;20441;-68
2023/06/28 06:22:42;;;;;;;8.70;2.70;;;18.10;99.90;;;;;;5132775;27;21318;-68
2023/06/28 06:25:08;;;;;;;6.57;2.60;;;18.20;99.90;;;;;;5151685;27;20183;-67
2023/06/28 06:27:34;;;;;;;5.20;2.47;;;18.20;99.90;;;;;;5151469;27;21026;-65
2023/06/28 06:30:00;;;;;;;3.17;2.47;;;18.20;99.90;;;;;;5151586;27;20538;-67
2023/06/28 06:32:25;;;;;;;4.90;1.97;;;18.30;99.90;;;;;;5151407;27;20505;-68
2023/06/28 06:34:51;;;;;;;3.00;2.17;;;18.30;99.90;;;;;;5133062;27;20185;-67
2023/06/28 06:37:17;;;;;;;4.03;2.70;;;18.40;99.90;;;;;;5151490;27;20187;-67
2023/06/28 06:39:42;;;;;;;5.40;2.33;;;18.40;99.90;;;;;;5150875;27;20704;-67
2023/06/28 06:42:08;;;;;;;3.93;2.23;;;18.50;99.90;;;;;;5150782;27;20173;-67
2023/06/28 06:44:34;;;;;;;9.70;2.50;;;18.50;99.90;;;;;;5150733;27;20499;-67
2023/06/28 06:47:01;;;;;;;5.20;2.30;;;18.60;99.90;;;;;;5150609;27;20437;-67
2023/06/28 06:49:26;;;;;;;3.80;2.03;;;18.70;99.90;;;;;;5150405;27;20200;-67
2023/06/28 06:51:53;;;;;;;6.90;2.27;;;18.80;99.90;;;;;;5150629;27;20466;-67
2023/06/28 06:54:18;;;;;;;6.63;2.33;;;18.90;99.90;;;;;;5150410;27;20284;-66
2023/06/28 06:56:44;;;;;;;8.97;3.13;;;19.00;99.90;;;;;;5150429;27;20520;-67
2023/06/28 06:59:09;;;;;;;9.43;2.70;;;19.00;99.90;;;;;;5150116;27;20208;-67
2023/06/28 07:01:35;;;;;;;3.90;2.40;;;19.00;99.90;;;;;;5150179;27;21007;-67
2023/06/28 07:04:01;;;;;;;5.00;2.20;;;19.00;99.90;;;;;;5131658;27;20181;-65
2023/06/28 07:06:26;;;;;;;6.43;2.80;;;19.10;99.90;;;;;;5149826;27;20180;-66
2023/06/28 07:08:52;;;;;;;5.73;2.40;;;19.20;99.90;;;;;;5131466;27;20989;-66
2023/06/28 07:11:17;;;;;;;5.70;2.27;;;19.20;99.90;;;;;;5149733;27;20630;-66
2023/06/28 07:13:43;;;;;;;7.10;2.50;;;19.30;99.90;;;;;;5150214;27;20187;-66
2023/06/28 07:16:08;;;;;;;8.67;2.33;;;19.30;99.90;;;;;;5149690;27;20190;-67
2023/06/28 07:18:34;;;;;;;5.33;2.07;;;19.30;99.90;;;;;;5130962;27;20211;-67
2023/06/28 07:21:00;;;;;;;3.53;2.13;;;19.40;99.10;;;;;;5131171;27;20199;-67
2023/06/28 07:23:25;;;;;;;5.33;2.33;;;19.40;99.30;;;;;;5149549;27;20196;-67
2023/06/28 07:25:51;;;;;;;5.20;2.20;;;19.40;99.90;;;;;;5149427;27;20606;-67
2023/06/28 07:28:17;;;;;;;5.00;2.00;;;19.50;96.10;;;;;;5149402;27;20199;-67
2023/06/28 07:30:53;;;;;;;6.57;2.13;;;19.50;97.00;;;;;;5149255;27;20756;-67
2023/06/28 07:33:22;;;;;;;12.67;2.50;;;19.50;99.30;;;;;;5149329;27;20635;-67
2023/06/28 07:35:49;;;;;;;3.40;1.77;;;19.40;95.00;;;;;;5149294;27;20408;-67
2023/06/28 07:38:17;;;;;;;4.30;2.00;;;19.40;95.00;;;;;;5149255;27;20457;-66
2023/06/28 07:40:43;;;;;;;5.90;2.50;;;19.40;96.80;;;;;;5149047;27;20444;-67
2023/06/28 07:43:08;;;;;;;6.67;2.33;;;19.40;99.90;;;;;;5149304;27;20417;-66
2023/06/28 07:45:34;;;;;;;5.87;2.20;;;19.30;98.40;;;;;;5148731;27;20652;-67
2023/06/28 07:48:00;;;;;;;3.97;1.87;;;19.30;95.80;;;;;;5149072;27;20202;-67
2023/06/28 07:50:25;;;;;;;6.40;2.17;;;19.30;95.80;;;;;;5149086;27;20220;-66
2023/06/28 07:52:52;;;;;;;9.10;2.17;;;19.30;96.80;;;;;;5148495;27;20179;-66
2023/06/28 07:55:17;;;;;;;9.07;2.47;;;19.30;97.40;;;;;;5130377;27;20325;-66
2023/06/28 07:57:43;;;;;;;2.33;1.77;;;19.30;96.90;;;;;;5148998;27;20988;-66
2023/06/28 08:00:10;;;;;;;3.00;1.70;;;19.30;98.00;;;;;;5148660;27;20216;-67
2023/06/28 08:02:36;;;;;;;4.30;2.20;;;19.20;97.40;;;;;;5130550;27;20287;-66
2023/06/28 08:05:02;;;;;;;5.70;2.27;;;19.30;96.50;;;;;;5148801;27;20631;-67
2023/06/28 08:07:28;;;;;;;5.63;1.87;;;19.30;96.70;;;;;;5149045;27;20183;-67
2023/06/28 08:09:53;;;;;;;4.93;1.80;;;19.30;97.90;;;;;;5148493;27;20258;-67
2023/06/28 08:12:19;;;;;;;4.73;2.20;;;19.30;98.10;;;;;;5148938;27;20429;-67
2023/06/28 08:14:45;;;;;;;7.30;1.80;;;19.40;98.60;;;;;;5149147;27;20180;-67
2023/06/28 08:17:11;;;;;;;5.70;1.97;;;19.40;97.70;;;;;;5130123;27;20416;-67
2023/06/28 08:19:36;;;;;;;4.40;2.00;;;19.40;96.90;;;;;;5130054;27;20219;-67
2023/06/28 08:22:03;;;;;;;6.50;2.10;;;19.40;94.50;;;;;;5130524;27;20173;-67
2023/06/28 08:24:29;;;;;;;4.30;1.87;;;19.50;94.90;;;;;;5148762;27;20738;-67
2023/06/28 08:26:55;;;;;;;4.47;1.90;;;19.50;96.30;;;;;;5148621;27;20539;-67
2023/06/28 08:29:22;;;;;;;4.67;2.30;;;19.50;96.90;;;;;;5130043;27;20693;-67
2023/06/28 08:31:47;;;;;;;4.60;2.00;;;19.50;95.50;;;;;;5148764;27;20176;-66
2023/06/28 08:34:13;;;;;;;4.70;2.43;;;19.60;95.40;;;;;;5149031;27;20754;-67
2023/06/28 08:36:38;;;;;;;6.60;2.50;;;19.60;95.60;;;;;;5149253;27;20267;-67
2023/06/28 08:39:04;;;;;;;7.13;2.40;;;19.70;95.10;;;;;;5148589;27;20196;-66
2023/06/28 08:41:30;;;;;;;7.50;2.30;;;19.80;95.70;;;;;;5130468;27;20594;-65
2023/06/28 08:43:59;;;;;;;3.80;2.30;;;19.90;96.30;;;;;;5148611;27;20728;-68
2023/06/28 08:46:26;;;;;;;5.83;2.20;;;19.90;94.80;;;;;;5148833;27;20418;-68
2023/06/28 08:48:53;;;;;;;3.50;2.20;;;20.00;95.50;;;;;;5130064;27;20842;-68
2023/06/28 08:51:19;;;;;;;4.77;2.00;;;20.20;97.40;;;;;;5130234;27;20452;-68
2023/06/28 08:53:48;;;;;;;3.53;2.30;;;20.40;98.30;;;;;;5148496;27;20414;-67
2023/06/28 08:56:15;;;;;;;6.07;2.73;;;20.40;96.50;;;;;;5148608;27;20419;-67
2023/06/28 08:58:41;;;;;;;8.47;3.60;;;20.40;96.20;;;;;;5148384;27;20456;-67
2023/06/28 09:01:08;;;;;;;8.00;3.20;;;20.70;95.80;;;;;;5148787;27;20430;-67
2023/06/28 09:03:40;;;;;;;8.53;2.57;;;20.90;95.30;;;;;;5148830;27;20409;-67
2023/06/28 09:06:06;;;;;;;7.07;2.33;;;21.00;95.10;;;;;;5152070;27;20441;-67
2023/06/28 09:08:33;;;;;;;5.30;2.30;;;21.20;95.80;;;;;;5153059;27;20441;-67
2023/06/28 09:11:03;;;;;;;4.57;2.10;;;21.30;95.70;;;;;;5152857;27;20197;-67
2023/06/28 09:13:29;;;;;;;4.47;2.40;;;21.50;94.40;;;;;;5152997;27;20421;-68
2023/06/28 09:15:55;;;;;;;4.97;2.37;;;21.50;93.60;;;;;;5152648;27;20421;-67
2023/06/28 09:18:22;;;;;;;3.83;2.20;;;21.70;96.20;;;;;;5152680;27;20465;-67
2023/06/28 09:20:52;;;;;;;6.90;2.50;;;22.00;96.60;;;;;;5152654;27;20516;-67
2023/06/28 09:23:28;;;;;;;3.80;2.40;;;22.00;95.70;;;;;;5152757;27;20440;-67
2023/06/28 09:25:54;;;;;;;3.43;1.73;;;22.30;95.50;;;;;;5133747;27;20425;-66
2023/06/28 09:28:23;;;;;;;2.93;1.67;;;22.40;94.20;;;;;;5152520;27;20667;-67
2023/06/28 09:30:55;;;;;;;5.67;1.87;;;22.60;93.80;;;;;;5152463;27;20482;-67
2023/06/28 09:33:22;;;;;;;3.67;1.97;;;23.00;93.40;;;;;;5152344;27;20447;-67
2023/06/28 09:35:52;;;;;;;4.87;2.10;;;23.00;92.50;;;;;;5133523;27;20425;-67
2023/06/28 09:38:18;;;;;;;11.83;2.60;;;23.30;93.20;;;;;;5152301;27;20489;-67
2023/06/28 09:40:43;;;;;;;4.67;1.80;;;23.30;92.40;;;;;;5152070;27;20426;-67
2023/06/28 09:43:14;;;;;;;6.43;2.10;;;23.20;91.60;;;;;;5152329;27;20415;-67
2023/06/28 09:45:40;;;;;;;5.23;1.90;;;23.60;92.40;;;;;;5152314;27;20953;-67
2023/06/28 09:48:06;;;;;;;2.97;1.50;;;23.80;91.70;;;;;;5152509;27;20474;-67
2023/06/28 09:50:42;;;;;;;5.90;2.33;;;24.10;91.40;;;;;;5151892;27;20692;-67
2023/06/28 09:53:16;;;;;;;6.90;2.23;;;23.70;91.60;;;;;;5152268;27;20585;-67
2023/06/28 09:55:46;;;;;;;3.40;1.80;;;23.90;92.10;;;;;;5133610;27;20444;-67
2023/06/28 09:58:20;;;;;;;5.63;1.97;;;24.00;92.30;;;;;;5152017;27;20405;-67
2023/06/28 10:00:47;;;;;;;9.27;2.17;;;24.10;91.60;;;;;;5152005;27;20451;-67
2023/06/28 10:03:14;;;;;;;5.90;2.20;;;24.40;91.20;;;;;;5133063;27;20432;-67
2023/06/28 10:05:42;;;;;;;3.13;1.53;;;24.90;91.70;;;;;;5151582;27;20439;-67
2023/06/28 10:08:14;;;;;;;6.87;2.33;;;25.00;91.60;;;;;;5151476;27;20912;-68
2023/06/28 10:10:40;;;;;;;7.73;1.60;;;25.20;91.20;;;;;;5151353;27;20422;-65
2023/06/28 10:13:10;;;;;;;3.63;1.97;;;25.20;90.30;;;;;;5151610;27;20425;-66
2023/06/28 10:15:43;;;;;;;3.23;1.70;;;25.80;89.30;;;;;;5150667;27;20906;-68
2023/06/28 10:18:09;;;;;;;3.57;2.03;;;25.80;90.10;;;;;;5150858;27;20404;-66
2023/06/28 10:20:37;;;;;;;6.70;1.70;;;25.90;90.50;;;;;;5132381;27;20429;-66
2023/06/28 10:23:06;;;;;;;2.90;2.13;;;26.10;88.30;;;;;;5150884;27;20184;-67
2023/06/28 10:25:32;;;;;;;5.20;2.00;;;26.20;86.30;;;;;;5150968;27;20949;-67
2023/06/28 10:27:59;;;;;;;5.97;2.50;;;26.10;87.70;;;;;;5132068;27;20437;-66
2023/06/28 10:30:25;;;;;;;4.07;1.70;;;26.10;87.30;;;;;;5150805;27;20437;-66
2023/06/28 10:32:52;;;;;;;6.50;2.23;;;25.90;86.10;;;;;;5132011;27;20417;-67
2023/06/28 10:35:18;;;;;;;7.73;2.00;;;25.60;88.70;;;;;;5150616;27;20528;-67
2023/06/28 10:37:44;;;;;;;7.40;2.07;;;25.40;88.90;;;;;;5150581;27;20984;-66
2023/06/28 10:40:10;;;;;;;5.97;2.03;;;25.20;90.00;;;;;;5151014;27;20649;-66
2023/06/28 10:42:40;;;;;;;6.10;1.93;;;25.20;88.50;;;;;;5132357;27;20576;-67
2023/06/28 10:45:08;;;;;;;6.37;1.90;;;25.20;88.60;;;;;;5150977;27;21209;-67
2023/06/28 10:47:34;;;;;;;4.17;2.03;;;25.70;90.40;;;;;;5115323;27;20414;-67
2023/06/28 10:50:11;;;;;;;7.53;2.63;;;26.10;85.90;;;;;;5151171;27;20437;-65
2023/06/28 10:52:51;;;;;;;4.93;2.17;;;26.70;86.40;;;;;;5151105;27;20839;-66
2023/06/28 10:55:20;;;;;;;10.83;2.70;;;27.10;85.90;;;;;;5150961;27;20501;-67
2023/06/28 10:57:58;;;;;;;8.10;2.00;;;27.30;83.70;;;;;;5150908;27;20857;-66
2023/06/28 11:00:46;;;;;;;7.73;1.93;;;27.60;85.70;;;;;;5150623;27;20472;-67
2023/06/28 11:03:13;;;;;;;6.47;2.57;;;27.80;83.50;;;;;;5150776;27;20936;-67
2023/06/28 11:05:45;;;;;;;7.27;2.00;;;27.90;82.90;;;;;;5150596;27;20406;-67
2023/06/28 11:08:13;;;;;;;4.73;2.23;;;28.10;83.00;;;;;;5150552;27;20497;-74
2023/06/28 11:10:40;;;;;;;3.23;2.40;;;28.00;82.20;;;;;;5130985;27;20442;-76
2023/06/28 11:13:10;;;;;;;4.87;2.50;;;28.20;83.10;;;;;;5150086;27;20927;-74
2023/06/28 11:15:43;;;;;;;3.00;1.90;;;28.20;82.00;;;;;;5150231;27;20425;-74
2023/06/28 11:18:19;;;;;;;9.33;2.20;;;28.30;80.40;;;;;;5131240;27;21269;-74
2023/06/28 11:20:58;;;;;;;6.70;2.37;;;27.90;80.80;;;;;;5130991;27;20445;-76
2023/06/28 11:23:47;;;;;;;3.30;1.40;;;28.00;79.80;;;;;;5149475;27;20432;-74
2023/06/28 11:26:32;;;;;;;3.40;2.17;;;28.40;82.00;;;;;;5149447;27;20413;-74
2023/06/28 11:28:57;;;;;;;11.50;2.17;;;28.60;82.60;;;;;;5148748;27;20803;-75
2023/06/28 11:31:25;;;;;;;8.40;2.00;;;28.60;79.10;;;;;;5130546;27;20485;-75
2023/06/28 11:33:56;;;;;;;2.43;1.67;;;28.30;79.40;;;;;;5149993;27;20579;-75
2023/06/28 11:36:25;;;;;;;7.13;2.30;;;27.80;81.00;;;;;;5130574;27;20421;-75
2023/06/28 11:38:51;;;;;;;5.73;2.13;;;27.80;81.10;;;;;;5149127;27;20457;-75
2023/06/28 11:41:17;;;;;;;4.73;1.97;;;27.90;79.90;;;;;;5149144;27;20469;-75
2023/06/28 11:43:47;;;;;;;3.97;2.20;;;27.70;79.70;;;;;;5130709;27;20518;-77
2023/06/28 11:46:20;;;;;;;3.00;2.17;;;27.20;79.20;;;;;;5148841;27;20177;-76
2023/06/28 11:48:47;;;;;;;2.70;1.77;;;26.90;79.70;;;;;;5096113;27;20426;-76
2023/06/28 11:51:14;;;;;;;5.13;1.90;;;27.30;79.30;;;;;;5129942;27;20553;-75
2023/06/28 11:53:40;;;;;;;3.93;1.93;;;27.50;80.20;;;;;;5149188;27;20803;-74
2023/06/28 11:56:05;;;;;;;2.47;1.70;;;27.30;80.40;;;;;;5149152;27;20428;-74
2023/06/28 11:58:33;;;;;;;8.63;2.23;;;27.20;80.80;;;;;;5148825;27;20227;-75
2023/06/28 12:01:04;;;;;;;7.23;2.00;;;26.80;81.20;;;;;;5148708;27;20203;-74
2023/06/28 12:03:30;;;;;;;3.53;1.70;;;26.50;81.10;;;;;;5148898;27;20421;-74
2023/06/28 12:05:56;;;;;;;3.40;1.70;;;26.10;82.30;;;;;;5149157;27;20421;-74
2023/06/28 12:08:22;;;;;;;3.80;1.93;;;26.40;82.70;;;;;;5130227;27;20184;-74
2023/06/28 12:10:48;;;;;;;5.37;2.07;;;27.00;79.80;;;;;;5149210;27;20434;-74
2023/06/28 12:13:23;;;;;;;5.53;2.00;;;27.30;83.20;;;;;;5148882;27;20418;-74
2023/06/28 12:15:48;;;;;;;3.27;1.80;;;27.70;79.00;;;;;;5130411;27;20885;-74
2023/06/28 12:18:15;;;;;;;3.93;1.83;;;28.10;81.00;;;;;;5148424;27;20410;-74
2023/06/28 12:20:40;;;;;;;7.20;2.07;;;28.30;81.40;;;;;;5149077;27;20737;-74
2023/06/28 12:23:13;;;;;;;3.80;1.83;;;28.50;81.00;;;;;;5148690;27;20457;-74
2023/06/28 12:25:43;;;;;;;1.80;1.33;;;28.50;80.20;;;;;;5148596;27;20172;-75
2023/06/28 12:28:13;;;;;;;6.60;1.73;;;28.60;78.90;;;;;;5148851;27;20795;-74
2023/06/28 12:30:38;;;;;;;3.97;1.97;;;28.70;80.10;;;;;;5148446;27;20482;-74
2023/06/28 12:33:08;;;;;;;6.77;2.00;;;29.00;81.10;;;;;;5130032;27;20417;-74
2023/06/28 12:35:34;;;;;;;2.80;1.60;;;29.00;79.00;;;;;;5112942;27;20425;-75
2023/06/28 12:38:02;;;;;;;5.40;2.10;;;28.60;78.60;;;;;;5148927;27;20414;-74
2023/06/28 12:40:31;;;;;;;5.40;1.57;;;28.30;79.50;;;;;;5153040;27;20470;-75
2023/06/28 12:43:18;;;;;;;2.90;1.70;;;27.90;79.60;;;;;;5152939;27;20949;-74